Portada
METAR-TAF:

METAR-TAF

Aeroports :

Chumphon, Tailàndia

latitud: 10-42-40N, longitud: 099-21-42E, altitud: 5 m

Observació

L'informe es va fer fa 3 hores i 41 minuts, a les 11:00 UTC
Vent 5 kt del Est
Temperatura 28°C
Humitat 79%
Pressió 1010 hPa
Visibilitat 10 km o més
Núvols disperses a una alçada de 2000 ft

METAR: VTSE 261100Z 10005KT 9999 SCT020 28/24 Q1010 NOSIG

Hora: 21:41 (14:41 UTC)

Pronòstic

L'informe es va fer fa 3 hores i 41 minuts, a les 11:00 UTC
Pronòstic vàlid del 26 a les 12 UTC al 27 a les 12 UTC
Vent 5 kt del Est/Sud-Est
Visibilitat 10 km o més
Escasses núvols a una alçada de 2000 ft

TAF: VTSE 261100Z 2612/2712 12005KT 9999 FEW020

Observacions i pronòstics meteorològics de més de 4000 aeroports (METAR i TAF).

Les estacions disponibles són els punts grocs i vermells al mapa.

Posi el ratolí al punt desitjat per veure el nom de l'estació.

Feu clic per veure les observacions i els pronòstics meteorològics.

Per canviar el mapa: feu clic els botons verds amb una creu de color negre per apropar; al botó verd amb un guió per allunyar la imatge; o en les fletxes verdes per a mapes adjacents.


METAR-TAF: